Kathy Jeanne — WDE2421 — position and weather

sailwx.info

Track history (hours):
 
Tides and Currents Weather Stations Pressure Air Temp Water Temp Dewpoint Dewpoint Depression Visibility Wind Speed Wind Dir Waves Ship Positions

Kathy Jeanne

Owner: MESITICH, RONNIE C, TERMINAL ISLAND, CA. More information available from US FCC via Universal Licensing System and Coast Guard Vessel Documentation Center.

Last reported at 2017-Nov-14 00:16 UTC. Time now 2017-Nov-24 12:54 UTC.
Position N 33°44' W 118°16'.
Warning: this ship's position is 10 days out of date.

Length 21 m.

Type: Fishing. MMSI: 367778000.

Date/timePositionNaut miles runAvg speedWind from/ knotsBaromVisibWave heightAir tempDewpointWater temp
2017-Nov-14 00:16N 33°44' W 118°16'  
2017-Nov-08 03:08N 33°60' W 118°57'1 9.4
2017-Nov-08 03:00N 34°01' W 118°58'2 3.2
2017-Nov-08 02:25N 34°03' W 118°59'0 0.8
2017-Nov-08 01:50N 34°02' W 118°58'0 0.0
2017-Nov-08 01:29N 34°02' W 118°58'0 0.0
2017-Nov-08 00:14N 34°02' W 118°58'0 0.0
2017-Nov-07 23:56N 34°02' W 118°58'0 0.0
2017-Nov-07 23:26N 34°02' W 118°58'0 0.0
2017-Nov-07 22:53N 34°02' W 118°58'0 0.0
2017-Nov-07 22:20N 34°02' W 118°58'0 0.0
2017-Nov-07 20:17N 34°02' W 118°58'0 0.0
2017-Nov-07 19:59N 34°02' W 118°58'1 1.0
2017-Nov-07 19:27N 34°02' W 118°58'1 2.9
2017-Nov-07 19:00N 34°02' W 118°59'4 8.7
2017-Nov-07 18:30N 34°02' W 119°05'5 8.9
2017-Nov-07 17:59N 34°01' W 119°10'5 8.9
2017-Nov-07 17:25N 34°00' W 119°16'4 9.1
2017-Nov-07 17:00N 33°60' W 119°20'5 8.9
2017-Nov-07 16:27N 33°59' W 119°26'8 0.9
2017-Nov-07 08:05N 33°58' W 119°35'3 8.1
2017-Nov-07 07:43N 33°57' W 119°39'9 8.1
2017-Nov-07 06:39N 33°56' W 119°49'1 3.8
2017-Nov-07 06:29N 33°56' W 119°50'4 8.3
2017-Nov-07 05:59N 33°55' W 119°55'4 6.1
2017-Nov-07 05:17N 33°54' W 119°60'3 3.3
2017-Nov-07 04:31N 33°56' W 119°57'0 9.4
2017-Nov-07 04:30N 33°56' W 119°57'21 3.2
2017-Nov-06 21:48N 33°60' W 119°32'3 8.8
2017-Nov-06 21:30N 34°01' W 119°29'4 9.0
2017-Nov-06 21:00N 34°03' W 119°24'5 8.8
2017-Nov-06 20:26N 34°05' W 119°19'11 0.6
2017-Nov-06 00:58N 33°59' W 119°30'7 8.2
2017-Nov-06 00:07N 33°59' W 119°22'1 8.8
2017-Nov-05 23:59N 33°60' W 119°20'4 8.3
2017-Nov-05 23:30N 34°01' W 119°16'4 8.1
2017-Nov-05 22:59N 34°01' W 119°11'4 7.8
2017-Nov-05 22:30N 34°01' W 119°06'4 7.6
2017-Nov-05 22:00N 34°02' W 119°02'4 7.4
2017-Nov-05 21:30N 34°02' W 118°57'0 0.7
2017-Nov-05 21:00N 34°02' W 118°57'0 0.3
2017-Nov-05 20:30N 34°02' W 118°57'0 0.3
2017-Nov-05 20:00N 34°02' W 118°57'0 0.2
2017-Nov-05 19:30N 34°02' W 118°57'0 0.4
2017-Nov-05 19:00N 34°02' W 118°57'4 7.8
2017-Nov-05 18:30N 33°59' W 118°53'4 8.7
2017-Nov-05 18:00N 33°57' W 118°49'4 8.8
2017-Nov-05 17:30N 33°55' W 118°45'  
Track history (hours):
 
Tides and Currents Weather Stations Pressure Air Temp Water Temp Dewpoint Dewpoint Depression Visibility Wind Speed Wind Dir Waves Ship Positions

Kathy Jeanne

Owner: MESITICH, RONNIE C, TERMINAL ISLAND, CA. More information available from US FCC via Universal Licensing System and Coast Guard Vessel Documentation Center.

Last reported at 2017-Nov-14 00:16 UTC. Time now 2017-Nov-24 12:54 UTC.
Position N 33°44' W 118°16'.
Warning: this ship's position is 10 days out of date.

Length 21 m.

Type: Fishing. MMSI: 367778000.

Date/timePositionNaut miles runAvg speedWind from/ knotsBaromVisibWave heightAir tempDewpointWater temp
2017-Nov-14 00:16N 33°44' W 118°16'  
2017-Nov-08 03:08N 33°60' W 118°57'1 9.4
2017-Nov-08 03:00N 34°01' W 118°58'2 3.2
2017-Nov-08 02:25N 34°03' W 118°59'0 0.8
2017-Nov-08 01:50N 34°02' W 118°58'0 0.0
2017-Nov-08 01:29N 34°02' W 118°58'0 0.0
2017-Nov-08 00:14N 34°02' W 118°58'0 0.0
2017-Nov-07 23:56N 34°02' W 118°58'0 0.0
2017-Nov-07 23:26N 34°02' W 118°58'0 0.0
2017-Nov-07 22:53N 34°02' W 118°58'0 0.0
2017-Nov-07 22:20N 34°02' W 118°58'0 0.0
2017-Nov-07 20:17N 34°02' W 118°58'0 0.0
2017-Nov-07 19:59N 34°02' W 118°58'1 1.0
2017-Nov-07 19:27N 34°02' W 118°58'1 2.9
2017-Nov-07 19:00N 34°02' W 118°59'4 8.7
2017-Nov-07 18:30N 34°02' W 119°05'5 8.9
2017-Nov-07 17:59N 34°01' W 119°10'5 8.9
2017-Nov-07 17:25N 34°00' W 119°16'4 9.1
2017-Nov-07 17:00N 33°60' W 119°20'5 8.9
2017-Nov-07 16:27N 33°59' W 119°26'8 0.9
2017-Nov-07 08:05N 33°58' W 119°35'3 8.1
2017-Nov-07 07:43N 33°57' W 119°39'9 8.1
2017-Nov-07 06:39N 33°56' W 119°49'1 3.8
2017-Nov-07 06:29N 33°56' W 119°50'4 8.3
2017-Nov-07 05:59N 33°55' W 119°55'4 6.1
2017-Nov-07 05:17N 33°54' W 119°60'3 3.3
2017-Nov-07 04:31N 33°56' W 119°57'0 9.4
2017-Nov-07 04:30N 33°56' W 119°57'21 3.2
2017-Nov-06 21:48N 33°60' W 119°32'3 8.8
2017-Nov-06 21:30N 34°01' W 119°29'4 9.0
2017-Nov-06 21:00N 34°03' W 119°24'5 8.8
2017-Nov-06 20:26N 34°05' W 119°19'11 0.6
2017-Nov-06 00:58N 33°59' W 119°30'7 8.2
2017-Nov-06 00:07N 33°59' W 119°22'1 8.8
2017-Nov-05 23:59N 33°60' W 119°20'4 8.3
2017-Nov-05 23:30N 34°01' W 119°16'4 8.1
2017-Nov-05 22:59N 34°01' W 119°11'4 7.8
2017-Nov-05 22:30N 34°01' W 119°06'4 7.6
2017-Nov-05 22:00N 34°02' W 119°02'4 7.4
2017-Nov-05 21:30N 34°02' W 118°57'0 0.7
2017-Nov-05 21:00N 34°02' W 118°57'0 0.3
2017-Nov-05 20:30N 34°02' W 118°57'0 0.3
2017-Nov-05 20:00N 34°02' W 118°57'0 0.2
2017-Nov-05 19:30N 34°02' W 118°57'0 0.4
2017-Nov-05 19:00N 34°02' W 118°57'4 7.8
2017-Nov-05 18:30N 33°59' W 118°53'4 8.7
2017-Nov-05 18:00N 33°57' W 118°49'4 8.8
2017-Nov-05 17:30N 33°55' W 118°45'  

Dump ship's entire track history